Terminal Aerodrome Forecast
Issued by NWS

Home | Current Version | Previous Version | Text Only | Print | Product List | Glossary Off
Versions: 1 2 3 4 5 6 7 8 9 10 11 12 13 14 15 16 17 18 19

000
FTUS43 KBIS 191123
TAFMOT
TAF
KMOT 191123Z 1912/2012 08009KT P6SM SKC WS020/13040KT
     FM191400 11013G21KT P6SM SCT020 OVC070 WS020/15040KT
     FM191600 13013G21KT P6SM OVC070
     FM192000 21011KT P6SM OVC080
     FM200000 25011KT P6SM BKN100
     FM200600 25010KT P6SM BKN060=

USA.gov is the U.S. government's official web portal to all federal, state and local government web resources and services.